KSSF

Stinson Municipal Airport

San Antonio, Texas, USA
KSSF 212338Z 2200/2224 15010KT P6SM FEW040 FM220200 14008KT P6SM BKN035 FM220400 17012KT P6SM OVC015 FM221800 19012G22KT P6SM OVC015 FM222100 22008KT P6SM OVC020
Issued Valid From Valid To
Jan-21 @ 23:38 UTC
(an hour ago)
Jan-22 @ 00:00 UTC
(55 minutes ago)
Jan-23 @ 00:00 UTC
(in 23 hours)
Jan-22 @ 00:00 to Jan-22 @ 02:00
KSSF 212338Z 2200/2224 15010KT P6SM FEW040
Wind Visibility Clouds
150° at 10 knots Greater than 6 miles
  • Few at 4,000' AGL
From Jan-22 @ 02:00 to Jan-22 @ 04:00
FM220200 14008KT P6SM BKN035
Wind Visibility Clouds
140° at 8 knots Greater than 6 miles
  • Broken at 3,500' AGL
From Jan-22 @ 04:00 to Jan-22 @ 18:00
FM220400 17012KT P6SM OVC015
Wind Visibility Clouds
170° at 12 knots Greater than 6 miles
  • Overcast at 1,500' AGL
From Jan-22 @ 18:00 to Jan-22 @ 21:00
FM221800 19012G22KT P6SM OVC015
Wind Visibility Clouds
190° at 12 knots
 Gusting to 22 knots
Greater than 6 miles
  • Overcast at 1,500' AGL
From Jan-22 @ 21:00 to Jan-23 @ 00:00
FM222100 22008KT P6SM OVC020
Wind Visibility Clouds
220° at 8 knots Greater than 6 miles
  • Overcast at 2,000' AGL
KSSF 212338Z 2200/2224 15010KT P6SM FEW040 FM220200 14008KT P6SM BKN035 FM220400 17012KT P6SM OVC015 FM221800 19012G22KT P6SM OVC015 FM222100 22008KT P6SM OVC020
Issued Jan-21 @ 23:38 UTC
(an hour ago)
Valid From Jan-22 @ 00:00 UTC
(55 minutes ago)
Valid To Jan-23 @ 00:00 UTC
(in 23 hours)
Jan-22 @ 00:00 - Jan-22 @ 02:00
Wind Visibility
150° at 10 knots Greater than 6 miles
Clouds
  • Few at 4,000' AGL
From Jan-22 @ 02:00 - Jan-22 @ 04:00
Wind Visibility
140° at 8 knots Greater than 6 miles
Clouds
  • Broken at 3,500' AGL
From Jan-22 @ 04:00 - Jan-22 @ 18:00
Wind Visibility
170° at 12 knots Greater than 6 miles
Clouds
  • Overcast at 1,500' AGL
From Jan-22 @ 18:00 - Jan-22 @ 21:00
Wind Visibility
190° at 12 knots
 Gusting to 22 knots
Greater than 6 miles
Clouds
  • Overcast at 1,500' AGL
From Jan-22 @ 21:00 - Jan-23 @ 00:00
Wind Visibility
220° at 8 knots Greater than 6 miles
Clouds
  • Overcast at 2,000' AGL